sensor_id;sensor_type;location;lat;lon;timestamp;pressure;altitude;pressure_sealevel;temperature;humidity
70248;BME280;57641;51.416;5.506;2022-10-22T00:01:49;101007.66;;;17.76;59.65
70248;BME280;57641;51.416;5.506;2022-10-22T00:04:14;101005.16;;;17.75;59.37
70248;BME280;57641;51.416;5.506;2022-10-22T00:06:40;101006.19;;;17.73;59.59
70248;BME280;57641;51.416;5.506;2022-10-22T00:09:07;101007.44;;;17.71;59.89
70248;BME280;57641;51.416;5.506;2022-10-22T00:11:32;101007.59;;;17.69;59.74
70248;BME280;57641;51.416;5.506;2022-10-22T00:13:58;101013.84;;;17.70;59.57
70248;BME280;57641;51.416;5.506;2022-10-22T00:16:23;101010.69;;;17.66;59.50
70248;BME280;57641;51.416;5.506;2022-10-22T00:18:49;101011.50;;;17.67;59.74
70248;BME280;57641;51.416;5.506;2022-10-22T00:21:15;101015.25;;;17.66;60.08
70248;BME280;57641;51.416;5.506;2022-10-22T00:23:41;101010.06;;;17.64;59.68
70248;BME280;57641;51.416;5.506;2022-10-22T00:26:07;101012.53;;;17.66;59.91
70248;BME280;57641;51.416;5.506;2022-10-22T00:28:33;101009.66;;;17.67;60.46
70248;BME280;57641;51.416;5.506;2022-10-22T00:30:59;101016.91;;;17.67;59.92
70248;BME280;57641;51.416;5.506;2022-10-22T00:33:26;101016.91;;;17.67;60.02
70248;BME280;57641;51.416;5.506;2022-10-22T00:35:52;101013.59;;;17.65;60.06
70248;BME280;57641;51.416;5.506;2022-10-22T00:38:18;101013.97;;;17.62;60.14
70248;BME280;57641;51.416;5.506;2022-10-22T00:40:43;101012.50;;;17.59;60.34
70248;BME280;57641;51.416;5.506;2022-10-22T00:43:12;101004.41;;;17.59;60.44
70248;BME280;57641;51.416;5.506;2022-10-22T00:45:38;101007.97;;;17.60;60.22
70248;BME280;57641;51.416;5.506;2022-10-22T00:53:17;101016.38;;;17.57;60.46
70248;BME280;57641;51.416;5.506;2022-10-22T00:55:45;101017.22;;;17.57;60.28
70248;BME280;57641;51.416;5.506;2022-10-22T00:58:12;101025.31;;;17.57;60.57
70248;BME280;57641;51.416;5.506;2022-10-22T01:00:38;101028.84;;;17.58;60.64
70248;BME280;57641;51.416;5.506;2022-10-22T01:03:04;101006.09;;;17.60;60.93
70248;BME280;57641;51.416;5.506;2022-10-22T01:05:47;101016.28;;;17.65;60.83
70248;BME280;57641;51.416;5.506;2022-10-22T01:11:07;101009.97;;;17.58;61.85
70248;BME280;57641;51.416;5.506;2022-10-22T01:13:48;101005.50;;;17.65;62.43
70248;BME280;57641;51.416;5.506;2022-10-22T01:16:24;101007.38;;;17.64;62.08
70248;BME280;57641;51.416;5.506;2022-10-22T01:21:45;101010.06;;;17.64;62.11
70248;BME280;57641;51.416;5.506;2022-10-22T01:27:57;101016.91;;;17.67;62.84
70248;BME280;57641;51.416;5.506;2022-10-22T01:29:58;101006.34;;;17.65;62.28
70248;BME280;57641;51.416;5.506;2022-10-22T01:32:25;101007.97;;;17.66;61.86
70248;BME280;57641;51.416;5.506;2022-10-22T01:34:59;101015.06;;;17.67;61.47
70248;BME280;57641;51.416;5.506;2022-10-22T01:37:29;101013.00;;;17.69;61.24
70248;BME280;57641;51.416;5.506;2022-10-22T01:39:57;101005.53;;;17.71;61.51
70248;BME280;57641;51.416;5.506;2022-10-22T01:42:24;101003.47;;;17.73;61.75
70248;BME280;57641;51.416;5.506;2022-10-22T01:44:50;101000.59;;;17.75;61.37
70248;BME280;57641;51.416;5.506;2022-10-22T01:47:53;101006.44;;;17.79;61.63
70248;BME280;57641;51.416;5.506;2022-10-22T01:53:43;101008.63;;;17.68;62.53
70248;BME280;57641;51.416;5.506;2022-10-22T01:59:16;101004.56;;;17.58;62.70
70248;BME280;57641;51.416;5.506;2022-10-22T02:04:37;101011.50;;;17.60;62.34
70248;BME280;57641;51.416;5.506;2022-10-22T02:07:08;101000.22;;;17.57;62.24
70248;BME280;57641;51.416;5.506;2022-10-22T02:09:36;101007.13;;;17.59;62.36
70248;BME280;57641;51.416;5.506;2022-10-22T02:12:06;101005.03;;;17.61;61.66
70248;BME280;57641;51.416;5.506;2022-10-22T02:14:37;101000.94;;;17.65;61.24
70248;BME280;57641;51.416;5.506;2022-10-22T02:17:06;100996.56;;;17.64;61.54
70248;BME280;57641;51.416;5.506;2022-10-22T02:22:08;101001.50;;;17.61;61.67
70248;BME280;57641;51.416;5.506;2022-10-22T02:24:34;101000.84;;;17.59;60.75
70248;BME280;57641;51.416;5.506;2022-10-22T02:27:08;101009.81;;;17.59;60.80
70248;BME280;57641;51.416;5.506;2022-10-22T02:29:40;101002.91;;;17.57;60.58
70248;BME280;57641;51.416;5.506;2022-10-22T02:32:09;101006.84;;;17.54;60.60
70248;BME280;57641;51.416;5.506;2022-10-22T02:34:36;101009.72;;;17.53;60.42
70248;BME280;57641;51.416;5.506;2022-10-22T02:37:03;101002.03;;;17.50;60.38
70248;BME280;57641;51.416;5.506;2022-10-22T02:39:30;101004.47;;;17.45;60.95
70248;BME280;57641;51.416;5.506;2022-10-22T02:41:56;101008.81;;;17.46;60.78
70248;BME280;57641;51.416;5.506;2022-10-22T02:44:23;101007.34;;;17.43;60.79
70248;BME280;57641;51.416;5.506;2022-10-22T02:46:49;101013.59;;;17.44;61.01
70248;BME280;57641;51.416;5.506;2022-10-22T02:49:15;101009.41;;;17.41;60.38
70248;BME280;57641;51.416;5.506;2022-10-22T02:51:41;101014.78;;;17.41;60.30
70248;BME280;57641;51.416;5.506;2022-10-22T02:54:06;101012.50;;;17.38;60.41
70248;BME280;57641;51.416;5.506;2022-10-22T02:56:31;101019.31;;;17.34;60.70
70248;BME280;57641;51.416;5.506;2022-10-22T02:58:57;101017.63;;;17.33;60.33
70248;BME280;57641;51.416;5.506;2022-10-22T03:01:23;101021.53;;;17.30;60.90
70248;BME280;57641;51.416;5.506;2022-10-22T03:03:48;101020.91;;;17.28;60.86
70248;BME280;57641;51.416;5.506;2022-10-22T03:06:13;101022.97;;;17.26;60.85
70248;BME280;57641;51.416;5.506;2022-10-22T03:08:39;101020.66;;;17.23;60.50
70248;BME280;57641;51.416;5.506;2022-10-22T03:11:05;101023.13;;;17.25;61.05
70248;BME280;57641;51.416;5.506;2022-10-22T03:13:30;101025.84;;;17.25;60.74
70248;BME280;57641;51.416;5.506;2022-10-22T03:15:56;101026.66;;;17.25;60.90
70248;BME280;57641;51.416;5.506;2022-10-22T03:18:21;101030.59;;;17.23;60.68
70248;BME280;57641;51.416;5.506;2022-10-22T03:20:47;101026.84;;;17.24;60.74
70248;BME280;57641;51.416;5.506;2022-10-22T03:23:14;101027.06;;;17.22;60.43
70248;BME280;57641;51.416;5.506;2022-10-22T03:25:43;101026.59;;;17.19;60.69
70248;BME280;57641;51.416;5.506;2022-10-22T03:28:12;101031.16;;;17.18;60.75
70248;BME280;57641;51.416;5.506;2022-10-22T03:30:39;101030.72;;;17.15;60.42
70248;BME280;57641;51.416;5.506;2022-10-22T03:33:05;101035.66;;;17.11;60.94
70248;BME280;57641;51.416;5.506;2022-10-22T03:35:30;101040.22;;;17.11;60.71
70248;BME280;57641;51.416;5.506;2022-10-22T03:37:59;101045.78;;;17.09;61.35
70248;BME280;57641;51.416;5.506;2022-10-22T03:40:25;101049.69;;;17.07;61.18
70248;BME280;57641;51.416;5.506;2022-10-22T03:42:52;101046.00;;;17.08;61.50
70248;BME280;57641;51.416;5.506;2022-10-22T03:45:17;101047.19;;;17.05;61.41
70248;BME280;57641;51.416;5.506;2022-10-22T03:47:43;101054.25;;;17.06;61.75
70248;BME280;57641;51.416;5.506;2022-10-22T03:50:09;101054.69;;;17.10;61.83
70248;BME280;57641;51.416;5.506;2022-10-22T03:52:36;101060.53;;;17.13;61.86
70248;BME280;57641;51.416;5.506;2022-10-22T03:55:04;101059.31;;;17.16;62.11
70248;BME280;57641;51.416;5.506;2022-10-22T03:57:29;101055.22;;;17.20;62.04
70248;BME280;57641;51.416;5.506;2022-10-22T03:59:55;101056.06;;;17.20;61.98
70248;BME280;57641;51.416;5.506;2022-10-22T04:02:20;101060.88;;;17.25;62.10
70248;BME280;57641;51.416;5.506;2022-10-22T04:04:46;101072.31;;;17.27;61.96
70248;BME280;57641;51.416;5.506;2022-10-22T04:07:11;101070.44;;;17.27;61.78
70248;BME280;57641;51.416;5.506;2022-10-22T04:09:37;101064.03;;;17.28;62.33
70248;BME280;57641;51.416;5.506;2022-10-22T04:12:03;101065.69;;;17.29;62.24
70248;BME280;57641;51.416;5.506;2022-10-22T04:14:33;101069.88;;;17.32;62.60
70248;BME280;57641;51.416;5.506;2022-10-22T04:16:58;101068.00;;;17.33;62.71
70248;BME280;57641;51.416;5.506;2022-10-22T04:19:24;101074.84;;;17.35;62.56
70248;BME280;57641;51.416;5.506;2022-10-22T04:21:49;101065.94;;;17.35;62.87
70248;BME280;57641;51.416;5.506;2022-10-22T04:24:15;101070.69;;;17.33;62.64
70248;BME280;57641;51.416;5.506;2022-10-22T04:26:40;101073.84;;;17.36;62.33
70248;BME280;57641;51.416;5.506;2022-10-22T04:29:06;101067.25;;;17.39;62.51
70248;BME280;57641;51.416;5.506;2022-10-22T04:31:32;101068.88;;;17.40;63.40
70248;BME280;57641;51.416;5.506;2022-10-22T04:33:59;101076.59;;;17.43;63.25
70248;BME280;57641;51.416;5.506;2022-10-22T04:36:25;101071.03;;;17.44;63.38
70248;BME280;57641;51.416;5.506;2022-10-22T04:38:53;101070.88;;;17.52;63.95
70248;BME280;57641;51.416;5.506;2022-10-22T04:41:25;101074.25;;;17.54;63.30
70248;BME280;57641;51.416;5.506;2022-10-22T04:43:53;101070.88;;;17.52;63.33
70248;BME280;57641;51.416;5.506;2022-10-22T04:46:19;101069.22;;;17.51;63.32
70248;BME280;57641;51.416;5.506;2022-10-22T04:48:45;101075.25;;;17.53;63.13
70248;BME280;57641;51.416;5.506;2022-10-22T04:51:14;101081.00;;;17.50;62.66
70248;BME280;57641;51.416;5.506;2022-10-22T04:53:39;101080.56;;;17.47;63.03
70248;BME280;57641;51.416;5.506;2022-10-22T04:56:09;101081.84;;;17.51;63.39
70248;BME280;57641;51.416;5.506;2022-10-22T04:58:36;101083.53;;;17.52;63.62
70248;BME280;57641;51.416;5.506;2022-10-22T05:03:41;101085.38;;;17.51;64.22
70248;BME280;57641;51.416;5.506;2022-10-22T05:06:07;101087.91;;;17.53;64.32
70248;BME280;57641;51.416;5.506;2022-10-22T05:08:33;101089.56;;;17.54;65.14
70248;BME280;57641;51.416;5.506;2022-10-22T05:10:59;101083.03;;;17.63;65.39
70248;BME280;57641;51.416;5.506;2022-10-22T05:13:24;101091.56;;;17.66;65.02
70248;BME280;57641;51.416;5.506;2022-10-22T05:15:50;101084.31;;;17.67;64.74
70248;BME280;57641;51.416;5.506;2022-10-22T05:18:16;101077.72;;;17.69;64.95
70248;BME280;57641;51.416;5.506;2022-10-22T05:20:41;101088.09;;;17.72;64.89
70248;BME280;57641;51.416;5.506;2022-10-22T05:23:07;101086.91;;;17.75;65.15
70248;BME280;57641;51.416;5.506;2022-10-22T05:25:39;101088.81;;;17.81;65.24
70248;BME280;57641;51.416;5.506;2022-10-22T05:28:04;101092.72;;;17.79;65.54
70248;BME280;57641;51.416;5.506;2022-10-22T05:30:30;101094.78;;;17.77;66.26
70248;BME280;57641;51.416;5.506;2022-10-22T05:32:56;101100.88;;;17.85;65.94
70248;BME280;57641;51.416;5.506;2022-10-22T05:35:21;101094.47;;;17.86;66.39
70248;BME280;57641;51.416;5.506;2022-10-22T05:37:46;101096.38;;;17.92;66.27
70248;BME280;57641;51.416;5.506;2022-10-22T05:40:12;101100.94;;;17.92;66.17
70248;BME280;57641;51.416;5.506;2022-10-22T05:42:37;101104.66;;;17.91;65.96
70248;BME280;57641;51.416;5.506;2022-10-22T05:45:03;101105.69;;;17.90;65.81
70248;BME280;57641;51.416;5.506;2022-10-22T05:47:29;101115.06;;;17.94;66.01
70248;BME280;57641;51.416;5.506;2022-10-22T05:49:55;101114.88;;;17.95;65.73
70248;BME280;57641;51.416;5.506;2022-10-22T05:52:23;101113.19;;;17.94;65.97
70248;BME280;57641;51.416;5.506;2022-10-22T05:54:49;101114.88;;;17.95;66.02
70248;BME280;57641;51.416;5.506;2022-10-22T05:57:14;101120.28;;;17.95;65.71
70248;BME280;57641;51.416;5.506;2022-10-22T05:59:40;101125.84;;;17.94;65.80
70248;BME280;57641;51.416;5.506;2022-10-22T06:02:07;101128.75;;;17.92;65.86
70248;BME280;57641;51.416;5.506;2022-10-22T06:04:33;101123.16;;;17.94;65.70
70248;BME280;57641;51.416;5.506;2022-10-22T06:06:58;101130.81;;;17.90;65.73
70248;BME280;57641;51.416;5.506;2022-10-22T06:09:27;101131.25;;;17.94;65.57
70248;BME280;57641;51.416;5.506;2022-10-22T06:11:54;101134.16;;;17.92;65.64
70248;BME280;57641;51.416;5.506;2022-10-22T06:14:21;101141.00;;;17.95;65.73
70248;BME280;57641;51.416;5.506;2022-10-22T06:16:47;101143.06;;;17.93;65.90
70248;BME280;57641;51.416;5.506;2022-10-22T06:19:15;101150.13;;;17.94;65.90
70248;BME280;57641;51.416;5.506;2022-10-22T06:21:41;101150.13;;;17.94;65.97
70248;BME280;57641;51.416;5.506;2022-10-22T06:24:07;101153.81;;;17.86;66.10
70248;BME280;57641;51.416;5.506;2022-10-22T06:26:33;101155.94;;;17.91;65.81
70248;BME280;57641;51.416;5.506;2022-10-22T06:28:59;101157.19;;;17.95;65.43
70248;BME280;57641;51.416;5.506;2022-10-22T06:31:25;101158.16;;;17.87;65.68
70248;BME280;57641;51.416;5.506;2022-10-22T06:33:51;101166.91;;;17.89;65.40
70248;BME280;57641;51.416;5.506;2022-10-22T06:36:19;101176.00;;;17.88;66.03
70248;BME280;57641;51.416;5.506;2022-10-22T06:38:45;101174.81;;;17.91;65.70
70248;BME280;57641;51.416;5.506;2022-10-22T06:41:15;101179.63;;;17.95;66.16
70248;BME280;57641;51.416;5.506;2022-10-22T06:43:42;101183.59;;;17.99;66.33
70248;BME280;57641;51.416;5.506;2022-10-22T06:46:12;101181.38;;;18.03;66.23
70248;BME280;57641;51.416;5.506;2022-10-22T06:48:38;101191.56;;;18.07;66.07
70248;BME280;57641;51.416;5.506;2022-10-22T06:51:09;101200.75;;;18.13;66.17
70248;BME280;57641;51.416;5.506;2022-10-22T06:53:37;101204.28;;;18.13;66.16
70248;BME280;57641;51.416;5.506;2022-10-22T06:56:15;101206.84;;;18.22;66.00
70248;BME280;57641;51.416;5.506;2022-10-22T06:58:41;101203.97;;;18.23;65.80
70248;BME280;57641;51.416;5.506;2022-10-22T07:01:10;101208.31;;;18.24;65.89
70248;BME280;57641;51.416;5.506;2022-10-22T07:03:37;101214.75;;;18.23;65.59
70248;BME280;57641;51.416;5.506;2022-10-22T07:06:04;101213.50;;;18.26;65.80
70248;BME280;57641;51.416;5.506;2022-10-22T07:08:30;101226.81;;;18.27;65.69
70248;BME280;57641;51.416;5.506;2022-10-22T07:11:07;101223.34;;;18.33;65.50
70248;BME280;57641;51.416;5.506;2022-10-22T07:13:33;101226.63;;;18.29;65.54
70248;BME280;57641;51.416;5.506;2022-10-22T07:15:59;101230.88;;;18.38;65.36
70248;BME280;57641;51.416;5.506;2022-10-22T07:18:24;101230.69;;;18.39;65.25
70248;BME280;57641;51.416;5.506;2022-10-22T07:20:50;101226.75;;;18.42;65.70
70248;BME280;57641;51.416;5.506;2022-10-22T07:23:16;101235.09;;;18.47;65.42
70248;BME280;57641;51.416;5.506;2022-10-22T07:25:41;101241.31;;;18.47;65.32
70248;BME280;57641;51.416;5.506;2022-10-22T07:28:07;101245.63;;;18.42;64.84
70248;BME280;57641;51.416;5.506;2022-10-22T07:30:34;101244.63;;;18.43;65.55
70248;BME280;57641;51.416;5.506;2022-10-22T07:33:00;101252.56;;;18.51;65.75
70248;BME280;57641;51.416;5.506;2022-10-22T07:35:25;101261.78;;;18.56;65.40
70248;BME280;57641;51.416;5.506;2022-10-22T07:37:51;101263.91;;;18.61;65.35
70248;BME280;57641;51.416;5.506;2022-10-22T07:40:16;101265.19;;;18.65;65.37
70248;BME280;57641;51.416;5.506;2022-10-22T07:42:41;101269.16;;;18.69;65.00
70248;BME280;57641;51.416;5.506;2022-10-22T07:45:07;101273.72;;;18.69;64.98
70248;BME280;57641;51.416;5.506;2022-10-22T07:47:34;101280.81;;;18.70;64.90
70248;BME280;57641;51.416;5.506;2022-10-22T07:50:00;101275.22;;;18.71;64.78
70248;BME280;57641;51.416;5.506;2022-10-22T07:52:26;101278.28;;;18.68;65.04
70248;BME280;57641;51.416;5.506;2022-10-22T07:54:52;101282.06;;;18.74;64.46
70248;BME280;57641;51.416;5.506;2022-10-22T07:57:17;101282.91;;;18.74;64.40
70248;BME280;57641;51.416;5.506;2022-10-22T07:59:42;101284.34;;;18.70;64.37
70248;BME280;57641;51.416;5.506;2022-10-22T08:02:10;101293.28;;;18.71;64.40
70248;BME280;57641;51.416;5.506;2022-10-22T08:04:35;101300.75;;;18.69;64.46
70248;BME280;57641;51.416;5.506;2022-10-22T08:07:01;101297.44;;;18.73;64.25
70248;BME280;57641;51.416;5.506;2022-10-22T08:09:26;101299.38;;;18.79;64.85
70248;BME280;57641;51.416;5.506;2022-10-22T08:11:52;101301.66;;;18.82;64.48
70248;BME280;57641;51.416;5.506;2022-10-22T08:14:18;101303.16;;;18.85;64.58
70248;BME280;57641;51.416;5.506;2022-10-22T08:16:44;101296.72;;;18.86;64.39
70248;BME280;57641;51.416;5.506;2022-10-22T08:19:09;101306.94;;;18.90;64.33
70248;BME280;57641;51.416;5.506;2022-10-22T08:21:35;101306.59;;;19.00;64.24
70248;BME280;57641;51.416;5.506;2022-10-22T08:24:00;101305.16;;;19.04;64.13
70248;BME280;57641;51.416;5.506;2022-10-22T08:26:25;101313.97;;;19.13;63.83
70248;BME280;57641;51.416;5.506;2022-10-22T08:28:51;101319.31;;;19.06;63.62
70248;BME280;57641;51.416;5.506;2022-10-22T08:31:16;101327.59;;;18.98;63.98
70248;BME280;57641;51.416;5.506;2022-10-22T08:33:42;101326.44;;;19.14;63.92
70248;BME280;57641;51.416;5.506;2022-10-22T08:36:08;101320.88;;;19.22;63.21
70248;BME280;57641;51.416;5.506;2022-10-22T08:38:33;101327.16;;;19.29;63.23
70248;BME280;57641;51.416;5.506;2022-10-22T08:44:11;101345.50;;;19.33;62.70
70248;BME280;57641;51.416;5.506;2022-10-22T08:49:22;101359.50;;;19.16;62.63
70248;BME280;57641;51.416;5.506;2022-10-22T08:51:49;101356.91;;;19.29;62.52
70248;BME280;57641;51.416;5.506;2022-10-22T08:59:44;101366.00;;;19.21;63.17
70248;BME280;57641;51.416;5.506;2022-10-22T09:02:27;101369.03;;;19.39;62.86
70248;BME280;57641;51.416;5.506;2022-10-22T09:05:04;101367.63;;;19.44;62.83
70248;BME280;57641;51.416;5.506;2022-10-22T09:07:33;101376.66;;;19.57;62.09
70248;BME280;57641;51.416;5.506;2022-10-22T09:09:59;101374.28;;;19.75;61.88
70248;BME280;57641;51.416;5.506;2022-10-22T09:12:27;101379.88;;;19.74;61.51
70248;BME280;57641;51.416;5.506;2022-10-22T09:14:52;101392.78;;;19.72;61.82
70248;BME280;57641;51.416;5.506;2022-10-22T09:17:44;101381.03;;;19.58;62.10
70248;BME280;57641;51.416;5.506;2022-10-22T09:21:04;101395.81;;;19.56;61.87
70248;BME280;57641;51.416;5.506;2022-10-22T09:25:48;101398.53;;;19.62;61.69
70248;BME280;57641;51.416;5.506;2022-10-22T09:28:16;101393.72;;;19.58;61.55
70248;BME280;57641;51.416;5.506;2022-10-22T09:30:41;101401.84;;;19.58;61.63
70248;BME280;57641;51.416;5.506;2022-10-22T09:33:17;101404.41;;;19.72;60.99
70248;BME280;57641;51.416;5.506;2022-10-22T09:38:14;101403.84;;;19.83;61.08
70248;BME280;57641;51.416;5.506;2022-10-22T09:40:45;101405.56;;;19.91;60.29
70248;BME280;57641;51.416;5.506;2022-10-22T09:43:12;101416.78;;;19.88;61.38
70248;BME280;57641;51.416;5.506;2022-10-22T09:45:39;101411.69;;;20.06;60.34
70248;BME280;57641;51.416;5.506;2022-10-22T09:48:20;101420.88;;;20.12;60.19
70248;BME280;57641;51.416;5.506;2022-10-22T09:50:58;101419.81;;;20.06;59.95
70248;BME280;57641;51.416;5.506;2022-10-22T09:54:16;101418.31;;;19.97;59.02
70248;BME280;57641;51.416;5.506;2022-10-22T09:56:20;101434.78;;;20.02;59.68
70248;BME280;57641;51.416;5.506;2022-10-22T09:58:49;101436.50;;;20.16;59.46
70248;BME280;57641;51.416;5.506;2022-10-22T10:01:22;101435.84;;;20.08;59.35
70248;BME280;57641;51.416;5.506;2022-10-22T10:03:48;101433.41;;;20.26;59.12
70248;BME280;57641;51.416;5.506;2022-10-22T10:06:21;101436.69;;;20.15;59.44
70248;BME280;57641;51.416;5.506;2022-10-22T10:08:48;101446.94;;;20.19;59.22
70248;BME280;57641;51.416;5.506;2022-10-22T10:11:26;101450.31;;;20.28;59.10
70248;BME280;57641;51.416;5.506;2022-10-22T10:14:16;101449.34;;;20.42;59.57
70248;BME280;57641;51.416;5.506;2022-10-22T10:19:29;101464.34;;;20.38;59.06
70248;BME280;57641;51.416;5.506;2022-10-22T10:25:31;101470.63;;;20.45;58.47
70248;BME280;57641;51.416;5.506;2022-10-22T10:35:25;101483.34;;;20.58;58.73
70248;BME280;57641;51.416;5.506;2022-10-22T10:43:28;101491.06;;;20.54;58.43
70248;BME280;57641;51.416;5.506;2022-10-22T10:48:34;101487.28;;;20.49;58.78
70248;BME280;57641;51.416;5.506;2022-10-22T11:07:52;101481.19;;;20.34;59.12
70248;BME280;57641;51.416;5.506;2022-10-22T11:13:16;101485.69;;;20.61;57.84
70248;BME280;57641;51.416;5.506;2022-10-22T11:15:47;101485.50;;;20.76;58.82
70248;BME280;57641;51.416;5.506;2022-10-22T11:18:19;101487.00;;;20.91;57.92
70248;BME280;57641;51.416;5.506;2022-10-22T11:20:56;101478.63;;;20.80;56.60
70248;BME280;57641;51.416;5.506;2022-10-22T11:26:04;101483.66;;;20.83;56.71
70248;BME280;57641;51.416;5.506;2022-10-22T11:28:46;101485.94;;;20.86;56.62
70248;BME280;57641;51.416;5.506;2022-10-22T11:31:15;101489.88;;;20.83;56.50
70248;BME280;57641;51.416;5.506;2022-10-22T11:33:52;101485.94;;;20.79;56.46
70248;BME280;57641;51.416;5.506;2022-10-22T11:36:22;101490.31;;;20.80;56.64
70248;BME280;57641;51.416;5.506;2022-10-22T11:38:50;101482.59;;;20.84;56.78
70248;BME280;57641;51.416;5.506;2022-10-22T11:41:18;101480.50;;;20.73;56.10
70248;BME280;57641;51.416;5.506;2022-10-22T11:44:22;101477.00;;;20.92;56.69
70248;BME280;57641;51.416;5.506;2022-10-22T11:47:19;101474.50;;;20.97;57.08
70248;BME280;57641;51.416;5.506;2022-10-22T11:50:14;101470.56;;;21.13;57.32
70248;BME280;57641;51.416;5.506;2022-10-22T11:52:49;101476.25;;;21.24;56.68
70248;BME280;57641;51.416;5.506;2022-10-22T11:55:31;101458.50;;;21.28;56.27
70248;BME280;57641;51.416;5.506;2022-10-22T11:58:01;101467.25;;;21.43;55.46
70248;BME280;57641;51.416;5.506;2022-10-22T12:00:50;101464.75;;;21.42;54.11
70248;BME280;57641;51.416;5.506;2022-10-22T12:14:13;101477.69;;;21.27;53.88
70248;BME280;57641;51.416;5.506;2022-10-22T12:19:50;101483.94;;;21.14;54.79
70248;BME280;57641;51.416;5.506;2022-10-22T12:22:25;101498.16;;;21.29;54.75
70248;BME280;57641;51.416;5.506;2022-10-22T12:24:54;101489.59;;;21.32;55.24
70248;BME280;57641;51.416;5.506;2022-10-22T12:27:21;101491.06;;;21.35;54.92
70248;BME280;57641;51.416;5.506;2022-10-22T12:29:47;101491.88;;;21.42;55.19
70248;BME280;57641;51.416;5.506;2022-10-22T12:32:14;101492.09;;;21.47;55.24
70248;BME280;57641;51.416;5.506;2022-10-22T12:34:49;101498.97;;;21.49;55.64
70248;BME280;57641;51.416;5.506;2022-10-22T12:37:16;101489.78;;;21.44;55.10
70248;BME280;57641;51.416;5.506;2022-10-22T12:39:43;101486.66;;;21.47;55.30
70248;BME280;57641;51.416;5.506;2022-10-22T12:42:18;101490.41;;;21.53;54.22
70248;BME280;57641;51.416;5.506;2022-10-22T12:44:46;101492.72;;;21.56;55.29
70248;BME280;57641;51.416;5.506;2022-10-22T12:47:16;101480.81;;;21.63;54.49
70248;BME280;57641;51.416;5.506;2022-10-22T12:49:45;101483.94;;;21.67;54.92
70248;BME280;57641;51.416;5.506;2022-10-22T12:52:17;101484.34;;;21.77;54.01
70248;BME280;57641;51.416;5.506;2022-10-22T12:54:46;101477.69;;;21.73;54.66
70248;BME280;57641;51.416;5.506;2022-10-22T12:57:16;101487.47;;;21.74;53.84
70248;BME280;57641;51.416;5.506;2022-10-22T12:59:47;101480.16;;;21.74;54.09
70248;BME280;57641;51.416;5.506;2022-10-22T13:02:17;101481.63;;;21.83;54.08
70248;BME280;57641;51.416;5.506;2022-10-22T13:07:38;101474.13;;;21.72;53.58
70248;BME280;57641;51.416;5.506;2022-10-22T13:10:25;101474.31;;;21.77;53.03
70248;BME280;57641;51.416;5.506;2022-10-22T13:12:55;101476.41;;;21.82;53.93
70248;BME280;57641;51.416;5.506;2022-10-22T13:18:21;101480.75;;;21.89;52.84
70248;BME280;57641;51.416;5.506;2022-10-22T13:21:01;101475.16;;;21.78;52.91
70248;BME280;57641;51.416;5.506;2022-10-22T13:23:29;101470.13;;;21.81;52.70
70248;BME280;57641;51.416;5.506;2022-10-22T13:26:15;101472.63;;;21.89;53.02
70248;BME280;57641;51.416;5.506;2022-10-22T13:28:48;101480.56;;;21.98;53.48
70248;BME280;57641;51.416;5.506;2022-10-22T13:31:26;101475.56;;;21.95;53.31
70248;BME280;57641;51.416;5.506;2022-10-22T13:33:58;101472.22;;;21.99;53.73
70248;BME280;57641;51.416;5.506;2022-10-22T13:36:27;101465.97;;;21.99;53.01
70248;BME280;57641;51.416;5.506;2022-10-22T13:38:54;101472.22;;;21.99;52.71
70248;BME280;57641;51.416;5.506;2022-10-22T13:41:21;101469.69;;;21.84;52.24
70248;BME280;57641;51.416;5.506;2022-10-22T13:43:46;101463.00;;;22.00;52.59
70248;BME280;57641;51.416;5.506;2022-10-22T13:46:12;101469.91;;;22.09;52.92
70248;BME280;57641;51.416;5.506;2022-10-22T13:48:38;101469.47;;;22.06;52.25
70248;BME280;57641;51.416;5.506;2022-10-22T13:51:10;101465.25;;;22.16;52.57
70248;BME280;57641;51.416;5.506;2022-10-22T13:53:38;101465.06;;;22.11;52.78
70248;BME280;57641;51.416;5.506;2022-10-22T13:56:04;101464.00;;;22.19;52.60
70248;BME280;57641;51.416;5.506;2022-10-22T13:58:30;101466.34;;;22.15;51.70
70248;BME280;57641;51.416;5.506;2022-10-22T14:00:57;101469.00;;;22.22;52.37
70248;BME280;57641;51.416;5.506;2022-10-22T14:03:36;101472.97;;;22.26;52.34
70248;BME280;57641;51.416;5.506;2022-10-22T14:06:02;101475.28;;;22.22;51.86
70248;BME280;57641;51.416;5.506;2022-10-22T14:08:28;101480.31;;;22.19;51.88
70248;BME280;57641;51.416;5.506;2022-10-22T14:10:57;101474.31;;;21.97;52.46
70248;BME280;57641;51.416;5.506;2022-10-22T14:13:23;101481.16;;;22.06;51.91
70248;BME280;57641;51.416;5.506;2022-10-22T14:15:50;101476.56;;;22.07;51.94
70248;BME280;57641;51.416;5.506;2022-10-22T14:18:23;101477.81;;;22.11;52.22
70248;BME280;57641;51.416;5.506;2022-10-22T14:20:54;101479.09;;;22.08;52.03
70248;BME280;57641;51.416;5.506;2022-10-22T14:23:23;101483.47;;;22.09;52.30
70248;BME280;57641;51.416;5.506;2022-10-22T14:25:49;101484.28;;;22.16;52.12
70248;BME280;57641;51.416;5.506;2022-10-22T14:28:18;101485.28;;;22.28;52.26
70248;BME280;57641;51.416;5.506;2022-10-22T14:30:44;101481.53;;;22.23;52.06
70248;BME280;57641;51.416;5.506;2022-10-22T14:35:38;101478.63;;;22.24;50.81
70248;BME280;57641;51.416;5.506;2022-10-22T14:38:04;101481.34;;;22.24;51.63
70248;BME280;57641;51.416;5.506;2022-10-22T14:40:29;101490.31;;;22.25;51.14
70248;BME280;57641;51.416;5.506;2022-10-22T14:42:55;101487.56;;;22.31;51.27
70248;BME280;57641;51.416;5.506;2022-10-22T14:45:24;101479.84;;;22.28;51.75
70248;BME280;57641;51.416;5.506;2022-10-22T14:47:50;101481.31;;;22.31;51.87
70248;BME280;57641;51.416;5.506;2022-10-22T14:50:19;101483.59;;;22.34;51.59